sensor_id;sensor_type;location;lat;lon;timestamp;P1;durP1;ratioP1;P2;durP2;ratioP2
479;SDS011;226;48.606;9.096;2022-09-03T00:02:11;2.77;;;2.57;;
479;SDS011;226;48.606;9.096;2022-09-03T00:04:46;2.93;;;2.50;;
479;SDS011;226;48.606;9.096;2022-09-03T00:07:25;3.20;;;2.93;;
479;SDS011;226;48.606;9.096;2022-09-03T00:09:59;3.03;;;2.50;;
479;SDS011;226;48.606;9.096;2022-09-03T00:12:32;4.70;;;2.67;;
479;SDS011;226;48.606;9.096;2022-09-03T00:15:05;9.03;;;2.60;;
479;SDS011;226;48.606;9.096;2022-09-03T00:17:36;6.33;;;3.10;;
479;SDS011;226;48.606;9.096;2022-09-03T00:20:09;2.47;;;2.27;;
479;SDS011;226;48.606;9.096;2022-09-03T00:22:42;4.43;;;2.83;;
479;SDS011;226;48.606;9.096;2022-09-03T00:25:14;3.47;;;3.17;;
479;SDS011;226;48.606;9.096;2022-09-03T00:27:49;2.93;;;2.73;;
479;SDS011;226;48.606;9.096;2022-09-03T00:30:20;4.00;;;2.83;;
479;SDS011;226;48.606;9.096;2022-09-03T00:32:50;2.97;;;2.77;;
479;SDS011;226;48.606;9.096;2022-09-03T00:35:24;3.80;;;2.97;;
479;SDS011;226;48.606;9.096;2022-09-03T00:37:58;4.00;;;2.93;;
479;SDS011;226;48.606;9.096;2022-09-03T00:40:42;3.90;;;2.83;;
479;SDS011;226;48.606;9.096;2022-09-03T00:43:24;2.30;;;2.20;;
479;SDS011;226;48.606;9.096;2022-09-03T00:46:02;3.30;;;2.50;;
479;SDS011;226;48.606;9.096;2022-09-03T00:48:40;3.23;;;2.70;;
479;SDS011;226;48.606;9.096;2022-09-03T00:51:26;5.80;;;3.23;;
479;SDS011;226;48.606;9.096;2022-09-03T00:54:07;2.97;;;2.77;;
479;SDS011;226;48.606;9.096;2022-09-03T00:56:42;4.10;;;3.40;;
479;SDS011;226;48.606;9.096;2022-09-03T00:59:18;2.50;;;2.40;;
479;SDS011;226;48.606;9.096;2022-09-03T01:02:00;2.40;;;2.20;;
479;SDS011;226;48.606;9.096;2022-09-03T01:04:39;5.13;;;3.23;;
479;SDS011;226;48.606;9.096;2022-09-03T01:07:17;2.47;;;2.27;;
479;SDS011;226;48.606;9.096;2022-09-03T01:10:00;2.77;;;2.57;;
479;SDS011;226;48.606;9.096;2022-09-03T01:12:38;3.33;;;2.90;;
479;SDS011;226;48.606;9.096;2022-09-03T01:15:15;6.47;;;2.40;;
479;SDS011;226;48.606;9.096;2022-09-03T01:17:53;2.60;;;2.43;;
479;SDS011;226;48.606;9.096;2022-09-03T01:20:40;3.03;;;2.73;;
479;SDS011;226;48.606;9.096;2022-09-03T01:23:33;3.40;;;2.83;;
479;SDS011;226;48.606;9.096;2022-09-03T01:26:26;11.33;;;2.40;;
479;SDS011;226;48.606;9.096;2022-09-03T01:29:02;5.57;;;3.00;;
479;SDS011;226;48.606;9.096;2022-09-03T01:31:41;2.87;;;2.20;;
479;SDS011;226;48.606;9.096;2022-09-03T01:34:19;2.23;;;2.03;;
479;SDS011;226;48.606;9.096;2022-09-03T01:37:00;2.43;;;2.23;;
479;SDS011;226;48.606;9.096;2022-09-03T01:39:37;2.60;;;2.40;;
479;SDS011;226;48.606;9.096;2022-09-03T01:42:17;4.70;;;2.97;;
479;SDS011;226;48.606;9.096;2022-09-03T01:47:51;4.37;;;2.67;;
479;SDS011;226;48.606;9.096;2022-09-03T01:50:28;4.00;;;2.57;;
479;SDS011;226;48.606;9.096;2022-09-03T01:53:06;2.57;;;2.20;;
479;SDS011;226;48.606;9.096;2022-09-03T01:55:47;3.27;;;2.33;;
479;SDS011;226;48.606;9.096;2022-09-03T01:58:28;2.20;;;2.07;;
479;SDS011;226;48.606;9.096;2022-09-03T02:01:04;4.60;;;2.43;;
479;SDS011;226;48.606;9.096;2022-09-03T02:03:43;2.43;;;2.23;;
479;SDS011;226;48.606;9.096;2022-09-03T02:06:13;3.43;;;2.80;;
479;SDS011;226;48.606;9.096;2022-09-03T02:08:42;2.77;;;2.53;;
479;SDS011;226;48.606;9.096;2022-09-03T02:11:10;4.40;;;2.23;;
479;SDS011;226;48.606;9.096;2022-09-03T02:13:40;2.77;;;2.43;;
479;SDS011;226;48.606;9.096;2022-09-03T02:16:11;3.27;;;2.30;;
479;SDS011;226;48.606;9.096;2022-09-03T02:18:42;1.90;;;1.80;;
479;SDS011;226;48.606;9.096;2022-09-03T02:21:14;2.63;;;2.43;;
479;SDS011;226;48.606;9.096;2022-09-03T02:23:46;2.73;;;2.50;;
479;SDS011;226;48.606;9.096;2022-09-03T02:26:15;3.00;;;2.80;;
479;SDS011;226;48.606;9.096;2022-09-03T02:28:47;2.70;;;2.50;;
479;SDS011;226;48.606;9.096;2022-09-03T02:31:18;2.57;;;2.37;;
479;SDS011;226;48.606;9.096;2022-09-03T02:33:47;2.53;;;2.33;;
479;SDS011;226;48.606;9.096;2022-09-03T02:36:17;3.67;;;3.37;;
479;SDS011;226;48.606;9.096;2022-09-03T02:38:47;4.07;;;3.50;;
479;SDS011;226;48.606;9.096;2022-09-03T02:41:15;3.50;;;3.20;;
479;SDS011;226;48.606;9.096;2022-09-03T02:43:44;4.30;;;2.90;;
479;SDS011;226;48.606;9.096;2022-09-03T02:46:16;3.23;;;2.93;;
479;SDS011;226;48.606;9.096;2022-09-03T02:48:48;2.67;;;2.47;;
479;SDS011;226;48.606;9.096;2022-09-03T02:51:16;4.40;;;3.70;;
479;SDS011;226;48.606;9.096;2022-09-03T02:53:44;3.10;;;2.67;;
479;SDS011;226;48.606;9.096;2022-09-03T02:56:13;3.57;;;3.27;;
479;SDS011;226;48.606;9.096;2022-09-03T02:58:41;3.30;;;3.00;;
479;SDS011;226;48.606;9.096;2022-09-03T03:01:09;3.40;;;3.20;;
479;SDS011;226;48.606;9.096;2022-09-03T03:03:50;3.20;;;2.90;;
479;SDS011;226;48.606;9.096;2022-09-03T03:06:18;3.93;;;3.30;;
479;SDS011;226;48.606;9.096;2022-09-03T03:08:47;2.50;;;2.30;;
479;SDS011;226;48.606;9.096;2022-09-03T03:11:16;6.83;;;2.13;;
479;SDS011;226;48.606;9.096;2022-09-03T03:13:45;3.20;;;2.60;;
479;SDS011;226;48.606;9.096;2022-09-03T03:16:14;2.50;;;2.30;;
479;SDS011;226;48.606;9.096;2022-09-03T03:18:43;2.17;;;2.00;;
479;SDS011;226;48.606;9.096;2022-09-03T03:21:14;3.73;;;2.67;;
479;SDS011;226;48.606;9.096;2022-09-03T03:23:43;3.77;;;3.07;;
479;SDS011;226;48.606;9.096;2022-09-03T03:26:12;2.77;;;2.57;;
479;SDS011;226;48.606;9.096;2022-09-03T03:28:42;2.63;;;2.40;;
479;SDS011;226;48.606;9.096;2022-09-03T03:31:12;3.20;;;2.53;;
479;SDS011;226;48.606;9.096;2022-09-03T03:33:42;3.03;;;2.93;;
479;SDS011;226;48.606;9.096;2022-09-03T03:36:11;3.10;;;2.80;;
479;SDS011;226;48.606;9.096;2022-09-03T03:38:42;5.77;;;3.53;;
479;SDS011;226;48.606;9.096;2022-09-03T03:41:11;4.40;;;3.63;;
479;SDS011;226;48.606;9.096;2022-09-03T03:43:42;4.83;;;2.87;;
479;SDS011;226;48.606;9.096;2022-09-03T03:46:11;2.67;;;2.47;;
479;SDS011;226;48.606;9.096;2022-09-03T03:48:40;2.90;;;2.70;;
479;SDS011;226;48.606;9.096;2022-09-03T03:51:08;3.57;;;2.90;;
479;SDS011;226;48.606;9.096;2022-09-03T03:53:38;6.47;;;3.50;;
479;SDS011;226;48.606;9.096;2022-09-03T03:56:07;17.43;;;3.43;;
479;SDS011;226;48.606;9.096;2022-09-03T03:58:36;5.30;;;3.33;;
479;SDS011;226;48.606;9.096;2022-09-03T04:01:08;3.40;;;3.10;;
479;SDS011;226;48.606;9.096;2022-09-03T04:03:37;7.43;;;3.33;;
479;SDS011;226;48.606;9.096;2022-09-03T04:06:05;3.87;;;3.40;;
479;SDS011;226;48.606;9.096;2022-09-03T04:08:34;3.80;;;2.93;;
479;SDS011;226;48.606;9.096;2022-09-03T04:11:06;4.30;;;2.77;;
479;SDS011;226;48.606;9.096;2022-09-03T04:13:36;2.50;;;2.40;;
479;SDS011;226;48.606;9.096;2022-09-03T04:16:06;2.80;;;2.60;;
479;SDS011;226;48.606;9.096;2022-09-03T04:18:35;4.30;;;2.60;;
479;SDS011;226;48.606;9.096;2022-09-03T04:21:05;4.03;;;3.50;;
479;SDS011;226;48.606;9.096;2022-09-03T04:23:35;2.83;;;2.57;;
479;SDS011;226;48.606;9.096;2022-09-03T04:26:06;3.30;;;3.00;;
479;SDS011;226;48.606;9.096;2022-09-03T04:28:35;4.37;;;3.40;;
479;SDS011;226;48.606;9.096;2022-09-03T04:31:03;4.93;;;3.07;;
479;SDS011;226;48.606;9.096;2022-09-03T04:33:34;3.43;;;2.63;;
479;SDS011;226;48.606;9.096;2022-09-03T04:36:04;6.03;;;3.50;;
479;SDS011;226;48.606;9.096;2022-09-03T04:38:33;2.90;;;2.40;;
479;SDS011;226;48.606;9.096;2022-09-03T04:41:02;4.13;;;2.90;;
479;SDS011;226;48.606;9.096;2022-09-03T04:43:34;3.37;;;2.17;;
479;SDS011;226;48.606;9.096;2022-09-03T04:46:03;4.93;;;2.90;;
479;SDS011;226;48.606;9.096;2022-09-03T04:48:43;3.10;;;2.90;;
479;SDS011;226;48.606;9.096;2022-09-03T04:51:14;2.73;;;2.53;;
479;SDS011;226;48.606;9.096;2022-09-03T04:53:43;3.77;;;3.33;;
479;SDS011;226;48.606;9.096;2022-09-03T04:56:13;3.20;;;2.87;;
479;SDS011;226;48.606;9.096;2022-09-03T04:58:43;2.80;;;2.53;;
479;SDS011;226;48.606;9.096;2022-09-03T05:01:17;3.13;;;2.90;;
479;SDS011;226;48.606;9.096;2022-09-03T05:03:46;2.70;;;2.50;;
479;SDS011;226;48.606;9.096;2022-09-03T05:06:17;4.10;;;2.73;;
479;SDS011;226;48.606;9.096;2022-09-03T05:08:46;3.30;;;2.97;;
479;SDS011;226;48.606;9.096;2022-09-03T05:11:15;3.40;;;3.10;;
479;SDS011;226;48.606;9.096;2022-09-03T05:13:47;3.20;;;2.90;;
479;SDS011;226;48.606;9.096;2022-09-03T05:16:16;4.63;;;3.53;;
479;SDS011;226;48.606;9.096;2022-09-03T05:18:45;8.40;;;3.13;;
479;SDS011;226;48.606;9.096;2022-09-03T05:21:13;5.47;;;3.80;;
479;SDS011;226;48.606;9.096;2022-09-03T05:23:44;3.37;;;3.07;;
479;SDS011;226;48.606;9.096;2022-09-03T05:26:14;3.80;;;3.50;;
479;SDS011;226;48.606;9.096;2022-09-03T05:28:43;4.47;;;3.17;;
479;SDS011;226;48.606;9.096;2022-09-03T05:31:14;5.20;;;3.10;;
479;SDS011;226;48.606;9.096;2022-09-03T05:33:44;2.87;;;2.57;;
479;SDS011;226;48.606;9.096;2022-09-03T05:36:14;2.70;;;2.50;;
479;SDS011;226;48.606;9.096;2022-09-03T05:38:43;2.40;;;2.23;;
479;SDS011;226;48.606;9.096;2022-09-03T05:41:12;2.97;;;2.77;;
479;SDS011;226;48.606;9.096;2022-09-03T05:43:44;6.87;;;3.03;;
479;SDS011;226;48.606;9.096;2022-09-03T05:46:18;4.50;;;3.17;;
479;SDS011;226;48.606;9.096;2022-09-03T05:48:46;3.57;;;3.13;;
479;SDS011;226;48.606;9.096;2022-09-03T05:51:15;3.60;;;3.30;;
479;SDS011;226;48.606;9.096;2022-09-03T05:53:45;3.70;;;3.40;;
479;SDS011;226;48.606;9.096;2022-09-03T05:56:15;3.40;;;3.00;;
479;SDS011;226;48.606;9.096;2022-09-03T05:58:44;4.03;;;3.10;;
479;SDS011;226;48.606;9.096;2022-09-03T06:01:18;3.00;;;2.70;;
479;SDS011;226;48.606;9.096;2022-09-03T06:03:52;4.93;;;3.10;;
479;SDS011;226;48.606;9.096;2022-09-03T06:06:21;4.73;;;3.37;;
479;SDS011;226;48.606;9.096;2022-09-03T06:08:51;4.77;;;3.40;;
479;SDS011;226;48.606;9.096;2022-09-03T06:11:20;7.40;;;3.47;;
479;SDS011;226;48.606;9.096;2022-09-03T06:13:53;4.13;;;3.00;;
479;SDS011;226;48.606;9.096;2022-09-03T06:16:23;6.00;;;3.77;;
479;SDS011;226;48.606;9.096;2022-09-03T06:18:57;3.37;;;3.13;;
479;SDS011;226;48.606;9.096;2022-09-03T06:21:26;7.47;;;3.43;;
479;SDS011;226;48.606;9.096;2022-09-03T06:23:55;3.13;;;2.83;;
479;SDS011;226;48.606;9.096;2022-09-03T06:26:25;3.40;;;3.10;;
479;SDS011;226;48.606;9.096;2022-09-03T06:28:55;3.03;;;2.83;;
479;SDS011;226;48.606;9.096;2022-09-03T06:31:24;3.53;;;3.20;;
479;SDS011;226;48.606;9.096;2022-09-03T06:33:53;3.20;;;2.97;;
479;SDS011;226;48.606;9.096;2022-09-03T06:36:28;4.20;;;3.50;;
479;SDS011;226;48.606;9.096;2022-09-03T06:38:56;2.80;;;2.57;;
479;SDS011;226;48.606;9.096;2022-09-03T06:41:25;3.10;;;2.80;;
479;SDS011;226;48.606;9.096;2022-09-03T06:43:56;2.77;;;2.43;;
479;SDS011;226;48.606;9.096;2022-09-03T06:46:30;4.60;;;3.40;;
479;SDS011;226;48.606;9.096;2022-09-03T06:49:00;3.07;;;2.77;;
479;SDS011;226;48.606;9.096;2022-09-03T06:51:28;4.87;;;3.77;;
479;SDS011;226;48.606;9.096;2022-09-03T06:53:58;5.40;;;3.60;;
479;SDS011;226;48.606;9.096;2022-09-03T06:56:27;3.70;;;3.00;;
479;SDS011;226;48.606;9.096;2022-09-03T06:59:05;6.83;;;3.57;;
479;SDS011;226;48.606;9.096;2022-09-03T07:01:36;4.97;;;2.80;;
479;SDS011;226;48.606;9.096;2022-09-03T07:04:10;7.53;;;5.20;;
479;SDS011;226;48.606;9.096;2022-09-03T07:06:39;6.73;;;3.43;;
479;SDS011;226;48.606;9.096;2022-09-03T07:09:09;5.90;;;4.27;;
479;SDS011;226;48.606;9.096;2022-09-03T07:11:38;6.63;;;3.40;;
479;SDS011;226;48.606;9.096;2022-09-03T07:14:13;5.60;;;4.03;;
479;SDS011;226;48.606;9.096;2022-09-03T07:16:43;4.23;;;3.83;;
479;SDS011;226;48.606;9.096;2022-09-03T07:19:11;7.27;;;3.30;;
479;SDS011;226;48.606;9.096;2022-09-03T07:21:40;4.60;;;2.80;;
479;SDS011;226;48.606;9.096;2022-09-03T07:24:15;3.03;;;2.83;;
479;SDS011;226;48.606;9.096;2022-09-03T07:26:43;3.57;;;2.67;;
479;SDS011;226;48.606;9.096;2022-09-03T07:29:13;3.13;;;2.93;;
479;SDS011;226;48.606;9.096;2022-09-03T07:31:47;4.87;;;3.40;;
479;SDS011;226;48.606;9.096;2022-09-03T07:34:18;3.70;;;3.07;;
479;SDS011;226;48.606;9.096;2022-09-03T07:36:49;6.80;;;3.50;;
479;SDS011;226;48.606;9.096;2022-09-03T07:39:17;3.17;;;2.63;;
479;SDS011;226;48.606;9.096;2022-09-03T07:41:46;3.50;;;2.73;;
479;SDS011;226;48.606;9.096;2022-09-03T07:44:16;6.57;;;3.03;;
479;SDS011;226;48.606;9.096;2022-09-03T07:46:47;4.37;;;3.60;;
479;SDS011;226;48.606;9.096;2022-09-03T07:49:17;3.40;;;2.60;;
479;SDS011;226;48.606;9.096;2022-09-03T07:51:46;6.97;;;3.37;;
479;SDS011;226;48.606;9.096;2022-09-03T07:54:16;3.43;;;2.87;;
479;SDS011;226;48.606;9.096;2022-09-03T07:56:45;2.67;;;2.47;;
479;SDS011;226;48.606;9.096;2022-09-03T07:59:13;3.90;;;3.53;;
479;SDS011;226;48.606;9.096;2022-09-03T08:01:41;3.97;;;3.40;;
479;SDS011;226;48.606;9.096;2022-09-03T08:04:11;4.20;;;3.13;;
479;SDS011;226;48.606;9.096;2022-09-03T08:06:39;5.73;;;4.00;;
479;SDS011;226;48.606;9.096;2022-09-03T08:09:08;4.27;;;2.90;;
479;SDS011;226;48.606;9.096;2022-09-03T08:11:39;4.63;;;3.53;;
479;SDS011;226;48.606;9.096;2022-09-03T08:14:10;3.33;;;2.50;;
479;SDS011;226;48.606;9.096;2022-09-03T08:16:39;3.10;;;2.60;;
479;SDS011;226;48.606;9.096;2022-09-03T08:19:10;4.57;;;3.53;;
479;SDS011;226;48.606;9.096;2022-09-03T08:21:40;3.97;;;3.33;;
479;SDS011;226;48.606;9.096;2022-09-03T08:24:08;4.07;;;3.20;;
479;SDS011;226;48.606;9.096;2022-09-03T08:26:37;5.10;;;3.33;;
479;SDS011;226;48.606;9.096;2022-09-03T08:29:07;3.80;;;2.63;;
479;SDS011;226;48.606;9.096;2022-09-03T08:31:36;5.80;;;2.73;;
479;SDS011;226;48.606;9.096;2022-09-03T08:34:05;3.00;;;2.70;;
479;SDS011;226;48.606;9.096;2022-09-03T08:36:37;3.77;;;2.83;;
479;SDS011;226;48.606;9.096;2022-09-03T08:39:07;2.93;;;2.73;;
479;SDS011;226;48.606;9.096;2022-09-03T08:41:39;3.67;;;2.87;;
479;SDS011;226;48.606;9.096;2022-09-03T08:44:16;2.93;;;2.73;;
479;SDS011;226;48.606;9.096;2022-09-03T08:46:47;4.87;;;3.17;;
479;SDS011;226;48.606;9.096;2022-09-03T08:49:20;2.80;;;2.60;;
479;SDS011;226;48.606;9.096;2022-09-03T08:51:51;3.90;;;2.43;;
479;SDS011;226;48.606;9.096;2022-09-03T08:54:23;7.20;;;2.37;;
479;SDS011;226;48.606;9.096;2022-09-03T08:56:52;3.10;;;2.03;;
479;SDS011;226;48.606;9.096;2022-09-03T08:59:22;1.73;;;1.63;;
479;SDS011;226;48.606;9.096;2022-09-03T09:01:59;2.93;;;2.27;;
479;SDS011;226;48.606;9.096;2022-09-03T09:04:43;2.13;;;2.03;;
479;SDS011;226;48.606;9.096;2022-09-03T09:07:23;2.73;;;1.80;;
479;SDS011;226;48.606;9.096;2022-09-03T09:09:59;3.00;;;2.33;;
479;SDS011;226;48.606;9.096;2022-09-03T09:12:32;2.50;;;2.10;;
479;SDS011;226;48.606;9.096;2022-09-03T09:15:11;4.20;;;2.63;;
479;SDS011;226;48.606;9.096;2022-09-03T09:17:48;2.60;;;2.40;;
479;SDS011;226;48.606;9.096;2022-09-03T09:20:20;2.13;;;1.80;;
479;SDS011;226;48.606;9.096;2022-09-03T09:22:51;3.30;;;2.50;;
479;SDS011;226;48.606;9.096;2022-09-03T09:25:22;3.10;;;2.80;;
479;SDS011;226;48.606;9.096;2022-09-03T09:27:53;3.10;;;2.83;;
479;SDS011;226;48.606;9.096;2022-09-03T09:30:23;3.93;;;2.43;;
479;SDS011;226;48.606;9.096;2022-09-03T09:32:51;4.77;;;2.23;;
479;SDS011;226;48.606;9.096;2022-09-03T09:35:21;2.17;;;1.97;;
479;SDS011;226;48.606;9.096;2022-09-03T09:37:52;2.73;;;2.50;;
479;SDS011;226;48.606;9.096;2022-09-03T09:40:25;2.40;;;1.97;;
479;SDS011;226;48.606;9.096;2022-09-03T09:43:07;3.20;;;2.23;;
479;SDS011;226;48.606;9.096;2022-09-03T09:45:36;2.40;;;2.00;;
479;SDS011;226;48.606;9.096;2022-09-03T09:48:13;2.93;;;2.20;;
479;SDS011;226;48.606;9.096;2022-09-03T09:50:43;2.67;;;2.43;;
479;SDS011;226;48.606;9.096;2022-09-03T09:53:12;2.40;;;1.90;;
479;SDS011;226;48.606;9.096;2022-09-03T09:55:50;4.20;;;2.10;;
479;SDS011;226;48.606;9.096;2022-09-03T09:58:20;3.57;;;2.20;;
479;SDS011;226;48.606;9.096;2022-09-03T10:00:59;3.20;;;1.97;;
479;SDS011;226;48.606;9.096;2022-09-03T10:03:30;3.47;;;2.60;;
479;SDS011;226;48.606;9.096;2022-09-03T10:06:01;3.83;;;2.17;;
479;SDS011;226;48.606;9.096;2022-09-03T10:08:54;2.97;;;2.63;;
479;SDS011;226;48.606;9.096;2022-09-03T10:11:33;2.10;;;2.00;;
479;SDS011;226;48.606;9.096;2022-09-03T10:14:08;2.20;;;2.10;;
479;SDS011;226;48.606;9.096;2022-09-03T10:16:40;3.67;;;1.83;;
479;SDS011;226;48.606;9.096;2022-09-03T10:19:15;1.80;;;1.67;;
479;SDS011;226;48.606;9.096;2022-09-03T10:21:46;4.37;;;2.50;;
479;SDS011;226;48.606;9.096;2022-09-03T10:24:25;3.90;;;2.20;;
479;SDS011;226;48.606;9.096;2022-09-03T10:26:55;2.93;;;2.03;;
479;SDS011;226;48.606;9.096;2022-09-03T10:29:24;2.00;;;1.70;;
479;SDS011;226;48.606;9.096;2022-09-03T10:31:58;2.30;;;2.20;;
479;SDS011;226;48.606;9.096;2022-09-03T10:34:31;2.47;;;2.27;;
479;SDS011;226;48.606;9.096;2022-09-03T10:37:06;1.83;;;1.73;;
479;SDS011;226;48.606;9.096;2022-09-03T10:39:41;3.80;;;2.50;;
479;SDS011;226;48.606;9.096;2022-09-03T10:42:19;4.33;;;2.83;;
479;SDS011;226;48.606;9.096;2022-09-03T10:44:57;4.00;;;2.87;;
479;SDS011;226;48.606;9.096;2022-09-03T10:47:30;4.30;;;2.30;;
479;SDS011;226;48.606;9.096;2022-09-03T10:50:01;2.50;;;2.30;;
479;SDS011;226;48.606;9.096;2022-09-03T10:52:54;2.30;;;2.10;;
479;SDS011;226;48.606;9.096;2022-09-03T10:55:28;2.63;;;2.43;;
479;SDS011;226;48.606;9.096;2022-09-03T10:58:00;2.70;;;2.10;;
479;SDS011;226;48.606;9.096;2022-09-03T11:00:31;3.30;;;2.23;;
479;SDS011;226;48.606;9.096;2022-09-03T11:05:52;3.00;;;2.70;;
479;SDS011;226;48.606;9.096;2022-09-03T11:08:22;4.03;;;3.00;;
479;SDS011;226;48.606;9.096;2022-09-03T11:10:54;2.83;;;2.13;;
479;SDS011;226;48.606;9.096;2022-09-03T11:13:23;2.40;;;2.13;;
479;SDS011;226;48.606;9.096;2022-09-03T11:15:54;3.63;;;2.57;;
479;SDS011;226;48.606;9.096;2022-09-03T11:18:23;3.47;;;2.80;;
479;SDS011;226;48.606;9.096;2022-09-03T11:20:53;2.40;;;2.20;;
479;SDS011;226;48.606;9.096;2022-09-03T11:23:23;2.83;;;2.33;;
479;SDS011;226;48.606;9.096;2022-09-03T11:25:55;2.73;;;2.53;;
479;SDS011;226;48.606;9.096;2022-09-03T11:28:26;3.93;;;2.70;;
479;SDS011;226;48.606;9.096;2022-09-03T11:31:03;2.97;;;2.70;;
479;SDS011;226;48.606;9.096;2022-09-03T11:33:39;4.10;;;2.90;;
479;SDS011;226;48.606;9.096;2022-09-03T11:36:09;3.13;;;2.20;;
479;SDS011;226;48.606;9.096;2022-09-03T11:38:37;2.53;;;2.37;;
479;SDS011;226;48.606;9.096;2022-09-03T11:41:12;3.73;;;2.50;;
479;SDS011;226;48.606;9.096;2022-09-03T11:43:41;4.77;;;2.60;;
479;SDS011;226;48.606;9.096;2022-09-03T11:46:10;3.30;;;3.00;;
479;SDS011;226;48.606;9.096;2022-09-03T11:48:41;5.20;;;2.70;;
479;SDS011;226;48.606;9.096;2022-09-03T11:51:17;3.27;;;2.40;;
479;SDS011;226;48.606;9.096;2022-09-03T11:53:55;3.90;;;2.87;;
479;SDS011;226;48.606;9.096;2022-09-03T11:56:25;4.27;;;2.60;;
479;SDS011;226;48.606;9.096;2022-09-03T11:58:58;1.10;;;1.00;;
479;SDS011;226;48.606;9.096;2022-09-03T12:01:27;4.97;;;1.30;;
479;SDS011;226;48.606;9.096;2022-09-03T12:03:57;7.00;;;0.93;;
479;SDS011;226;48.606;9.096;2022-09-03T12:06:37;3.80;;;1.27;;
479;SDS011;226;48.606;9.096;2022-09-03T12:12:13;0.90;;;0.90;;
479;SDS011;226;48.606;9.096;2022-09-03T12:14:46;1.10;;;1.10;;
479;SDS011;226;48.606;9.096;2022-09-03T12:17:21;2.87;;;0.87;;
479;SDS011;226;48.606;9.096;2022-09-03T12:19:55;1.40;;;1.30;;
479;SDS011;226;48.606;9.096;2022-09-03T12:22:25;1.20;;;1.10;;
479;SDS011;226;48.606;9.096;2022-09-03T12:24:54;1.70;;;1.00;;
479;SDS011;226;48.606;9.096;2022-09-03T12:27:25;1.37;;;1.27;;
479;SDS011;226;48.606;9.096;2022-09-03T12:29:54;4.07;;;1.73;;
479;SDS011;226;48.606;9.096;2022-09-03T12:32:26;0.80;;;0.80;;
479;SDS011;226;48.606;9.096;2022-09-03T12:34:55;0.70;;;0.70;;
479;SDS011;226;48.606;9.096;2022-09-03T12:37:24;1.60;;;0.80;;
479;SDS011;226;48.606;9.096;2022-09-03T12:40:17;1.30;;;1.00;;
479;SDS011;226;48.606;9.096;2022-09-03T12:42:48;1.20;;;1.10;;
479;SDS011;226;48.606;9.096;2022-09-03T12:45:18;2.20;;;1.33;;
479;SDS011;226;48.606;9.096;2022-09-03T12:47:46;1.33;;;1.23;;
479;SDS011;226;48.606;9.096;2022-09-03T12:50:16;7.13;;;1.33;;
479;SDS011;226;48.606;9.096;2022-09-03T12:52:45;1.80;;;1.13;;
479;SDS011;226;48.606;9.096;2022-09-03T12:58:04;0.87;;;0.83;;
479;SDS011;226;48.606;9.096;2022-09-03T13:00:40;1.63;;;1.30;;
479;SDS011;226;48.606;9.096;2022-09-03T13:03:10;2.10;;;1.23;;
479;SDS011;226;48.606;9.096;2022-09-03T13:05:40;0.80;;;0.80;;
479;SDS011;226;48.606;9.096;2022-09-03T13:08:12;1.27;;;1.20;;
479;SDS011;226;48.606;9.096;2022-09-03T13:10:42;2.17;;;1.10;;
479;SDS011;226;48.606;9.096;2022-09-03T13:13:18;1.53;;;1.20;;
479;SDS011;226;48.606;9.096;2022-09-03T13:15:54;1.87;;;1.27;;
479;SDS011;226;48.606;9.096;2022-09-03T13:18:24;1.40;;;1.30;;
479;SDS011;226;48.606;9.096;2022-09-03T13:21:00;1.00;;;1.00;;
479;SDS011;226;48.606;9.096;2022-09-03T13:23:38;1.47;;;1.10;;
479;SDS011;226;48.606;9.096;2022-09-03T13:26:23;1.20;;;1.10;;
479;SDS011;226;48.606;9.096;2022-09-03T13:29:13;0.80;;;0.80;;
479;SDS011;226;48.606;9.096;2022-09-03T13:31:51;2.60;;;1.60;;
479;SDS011;226;48.606;9.096;2022-09-03T13:34:21;1.33;;;1.23;;
479;SDS011;226;48.606;9.096;2022-09-03T13:36:52;2.23;;;1.33;;
479;SDS011;226;48.606;9.096;2022-09-03T13:39:25;4.50;;;1.10;;
479;SDS011;226;48.606;9.096;2022-09-03T13:42:00;1.20;;;1.10;;
479;SDS011;226;48.606;9.096;2022-09-03T13:44:39;2.10;;;1.50;;
479;SDS011;226;48.606;9.096;2022-09-03T13:47:11;3.77;;;0.80;;
479;SDS011;226;48.606;9.096;2022-09-03T13:49:51;1.27;;;1.10;;
479;SDS011;226;48.606;9.096;2022-09-03T13:52:42;2.60;;;1.60;;
479;SDS011;226;48.606;9.096;2022-09-03T13:55:16;1.47;;;1.20;;
479;SDS011;226;48.606;9.096;2022-09-03T13:57:49;0.80;;;0.70;;
479;SDS011;226;48.606;9.096;2022-09-03T14:00:29;1.23;;;1.13;;
479;SDS011;226;48.606;9.096;2022-09-03T14:03:02;0.80;;;0.80;;
479;SDS011;226;48.606;9.096;2022-09-03T14:05:38;1.30;;;1.00;;
479;SDS011;226;48.606;9.096;2022-09-03T14:08:11;1.20;;;1.10;;
479;SDS011;226;48.606;9.096;2022-09-03T14:10:54;1.20;;;1.10;;
479;SDS011;226;48.606;9.096;2022-09-03T14:13:27;1.13;;;1.13;;
479;SDS011;226;48.606;9.096;2022-09-03T14:16:03;5.23;;;1.17;;
479;SDS011;226;48.606;9.096;2022-09-03T14:18:34;2.00;;;0.80;;
479;SDS011;226;48.606;9.096;2022-09-03T14:21:06;0.50;;;0.50;;
479;SDS011;226;48.606;9.096;2022-09-03T14:23:36;0.80;;;0.80;;
479;SDS011;226;48.606;9.096;2022-09-03T14:26:13;1.03;;;1.00;;
479;SDS011;226;48.606;9.096;2022-09-03T14:28:43;1.73;;;1.27;;
479;SDS011;226;48.606;9.096;2022-09-03T14:31:18;0.60;;;0.60;;
479;SDS011;226;48.606;9.096;2022-09-03T14:33:50;0.60;;;0.60;;
479;SDS011;226;48.606;9.096;2022-09-03T14:36:23;1.00;;;1.00;;
479;SDS011;226;48.606;9.096;2022-09-03T14:38:57;1.37;;;1.20;;
479;SDS011;226;48.606;9.096;2022-09-03T14:41:31;0.77;;;0.73;;
479;SDS011;226;48.606;9.096;2022-09-03T14:46:54;1.03;;;0.80;;
479;SDS011;226;48.606;9.096;2022-09-03T14:49:33;0.97;;;0.97;;
479;SDS011;226;48.606;9.096;2022-09-03T14:52:15;4.00;;;0.90;;
479;SDS011;226;48.606;9.096;2022-09-03T14:54:50;0.93;;;0.93;;
479;SDS011;226;48.606;9.096;2022-09-03T14:57:35;5.70;;;0.90;;
479;SDS011;226;48.606;9.096;2022-09-03T15:00:13;1.97;;;1.30;;
479;SDS011;226;48.606;9.096;2022-09-03T15:02:54;1.10;;;1.00;;
479;SDS011;226;48.606;9.096;2022-09-03T15:05:32;0.70;;;0.70;;
479;SDS011;226;48.606;9.096;2022-09-03T15:08:07;1.30;;;1.07;;
479;SDS011;226;48.606;9.096;2022-09-03T15:10:37;1.80;;;0.93;;
479;SDS011;226;48.606;9.096;2022-09-03T15:13:07;0.63;;;0.63;;
479;SDS011;226;48.606;9.096;2022-09-03T15:15:44;0.60;;;0.60;;
479;SDS011;226;48.606;9.096;2022-09-03T15:18:16;1.10;;;1.00;;
479;SDS011;226;48.606;9.096;2022-09-03T15:20:50;1.23;;;0.80;;
479;SDS011;226;48.606;9.096;2022-09-03T15:23:22;1.03;;;1.03;;
479;SDS011;226;48.606;9.096;2022-09-03T15:26:00;2.10;;;1.20;;
479;SDS011;226;48.606;9.096;2022-09-03T15:28:32;2.10;;;1.20;;
479;SDS011;226;48.606;9.096;2022-09-03T15:31:08;1.03;;;0.87;;
479;SDS011;226;48.606;9.096;2022-09-03T15:33:42;2.90;;;2.07;;
479;SDS011;226;48.606;9.096;2022-09-03T15:36:14;1.13;;;0.90;;
479;SDS011;226;48.606;9.096;2022-09-03T15:38:47;0.80;;;0.80;;
479;SDS011;226;48.606;9.096;2022-09-03T15:41:18;0.90;;;0.90;;
479;SDS011;226;48.606;9.096;2022-09-03T15:43:48;2.07;;;1.50;;
479;SDS011;226;48.606;9.096;2022-09-03T15:46:33;1.00;;;0.90;;
479;SDS011;226;48.606;9.096;2022-09-03T15:49:07;1.10;;;0.97;;
479;SDS011;226;48.606;9.096;2022-09-03T15:51:41;0.90;;;0.90;;
479;SDS011;226;48.606;9.096;2022-09-03T15:54:16;0.80;;;0.80;;
479;SDS011;226;48.606;9.096;2022-09-03T15:56:51;1.00;;;0.90;;
479;SDS011;226;48.606;9.096;2022-09-03T15:59:22;1.13;;;0.90;;
479;SDS011;226;48.606;9.096;2022-09-03T16:01:53;1.00;;;1.00;;
479;SDS011;226;48.606;9.096;2022-09-03T16:04:31;1.50;;;0.90;;
479;SDS011;226;48.606;9.096;2022-09-03T16:07:06;1.10;;;1.10;;
479;SDS011;226;48.606;9.096;2022-09-03T16:09:38;1.20;;;1.10;;
479;SDS011;226;48.606;9.096;2022-09-03T16:12:33;2.93;;;1.33;;
479;SDS011;226;48.606;9.096;2022-09-03T16:15:03;2.30;;;1.73;;
479;SDS011;226;48.606;9.096;2022-09-03T16:17:34;2.40;;;1.57;;
479;SDS011;226;48.606;9.096;2022-09-03T16:20:07;1.40;;;1.30;;
479;SDS011;226;48.606;9.096;2022-09-03T16:22:43;1.40;;;1.30;;
479;SDS011;226;48.606;9.096;2022-09-03T16:25:13;2.00;;;1.37;;
479;SDS011;226;48.606;9.096;2022-09-03T16:27:53;1.80;;;1.20;;
479;SDS011;226;48.606;9.096;2022-09-03T16:30:27;1.70;;;1.40;;
479;SDS011;226;48.606;9.096;2022-09-03T16:33:05;1.20;;;1.10;;
479;SDS011;226;48.606;9.096;2022-09-03T16:35:39;2.53;;;1.37;;